Time;durP1;ratioP1;P1;durP2;ratioP2;P2;SDS_P1;SDS_P2;PMS_P1;PMS_P2;Temp;Humidity;BMP_temperature;BMP_pressure;BME280_temperature;BME280_humidity;BME280_pressure;Samples;Min_cycle;Max_cycle;Signal;HPM_P1;HPM_P2
2021/03/03 00:00:17;;;;;;;131.20;61.48;;;;;;;1.22;73.98;101880.19;124510;1112;24406;-58
2021/03/03 00:03:07;;;;;;;140.93;62.87;;;;;;;1.15;74.12;101871.84;124142;1110;29185;-59
2021/03/03 00:05:36;;;;;;;182.97;76.17;;;;;;;1.10;73.91;101874.91;124335;1112;24399;-56
2021/03/03 00:08:06;;;;;;;156.97;65.17;;;;;;;1.07;74.52;101875.67;124238;1112;26224;-59
2021/03/03 00:10:36;;;;;;;146.18;64.85;;;;;;;1.05;74.54;101873.31;124233;1111;26341;-59
2021/03/03 00:13:06;;;;;;;149.03;64.80;;;;;;;1.04;74.25;101879.16;124161;1112;23027;-57
2021/03/03 00:15:35;;;;;;;147.62;67.08;;;;;;;1.04;74.33;101876.41;124363;1112;27377;-59
2021/03/03 00:18:04;;;;;;;152.87;63.93;;;;;;;1.03;73.82;101874.84;124450;1111;24949;-58
2021/03/03 00:20:33;;;;;;;146.97;65.73;;;;;;;1.00;74.53;101870.87;124361;1111;23677;-59
2021/03/03 00:23:02;;;;;;;156.73;67.87;;;;;;;0.96;74.21;101875.55;124381;1112;24733;-59
2021/03/03 00:25:31;;;;;;;159.73;66.57;;;;;;;0.95;74.23;101873.18;124629;1111;23458;-60
2021/03/03 00:28:02;;;;;;;153.47;64.47;;;;;;;0.95;74.73;101868.48;124666;1111;23039;-61
2021/03/03 00:30:31;;;;;;;149.37;63.47;;;;;;;0.96;74.24;101867.30;124729;1111;23086;-56
2021/03/03 00:33:00;;;;;;;160.00;67.53;;;;;;;0.96;74.18;101867.30;124867;1110;26018;-60
2021/03/03 00:35:29;;;;;;;177.83;75.20;;;;;;;0.95;73.93;101856.67;124717;1109;23090;-59
2021/03/03 00:37:58;;;;;;;196.20;77.25;;;;;;;0.94;73.85;101860.58;124529;1111;23093;-58
2021/03/03 00:40:28;;;;;;;185.40;77.30;;;;;;;0.89;74.34;101858.17;124395;1112;23197;-65
2021/03/03 00:42:56;;;;;;;;;;;;;;;0.85;74.51;101855.36;124311;1111;27710;-59
2021/03/03 00:45:25;;;;;;;174.57;73.60;;;;;;;0.80;73.86;101863.95;124392;1112;25477;-59
2021/03/03 00:47:56;;;;;;;170.30;72.30;;;;;;;0.74;74.32;101855.26;124256;1112;26192;-59
2021/03/03 00:50:25;;;;;;;166.90;73.90;;;;;;;0.68;73.81;101864.97;124202;1112;23089;-59
2021/03/03 00:52:54;;;;;;;169.13;74.40;;;;;;;0.64;74.17;101853.14;124229;1111;23035;-59
2021/03/03 00:55:23;;;;;;;179.00;72.37;;;;;;;0.60;74.48;101851.53;124260;1110;23134;-59
2021/03/03 00:57:52;;;;;;;154.47;69.60;;;;;;;0.54;74.57;101853.79;124289;1111;27615;-57
2021/03/03 01:00:23;;;;;;;157.83;69.40;;;;;;;0.49;74.74;101859.63;124380;1111;23038;-59
2021/03/03 01:02:52;;;;;;;148.93;68.40;;;;;;;0.46;74.09;101852.11;124365;1112;25564;-59
2021/03/03 01:05:22;;;;;;;153.15;65.05;;;;;;;0.41;74.25;101852.45;124263;1111;23096;-58
2021/03/03 01:07:53;;;;;;;130.03;61.90;;;;;;;0.37;74.13;101861.80;124297;1112;23106;-59
2021/03/03 01:10:22;;;;;;;140.90;63.23;;;;;;;0.37;74.39;101856.30;124473;1111;23004;-59
2021/03/03 01:12:51;;;;;;;137.60;59.97;;;;;;;0.35;74.89;101853.14;125946;1111;23046;-60
2021/03/03 01:15:21;;;;;;;132.83;61.23;;;;;;;0.32;74.82;101851.91;124431;1112;23248;-59
2021/03/03 01:17:52;;;;;;;125.73;57.73;;;;;;;0.31;74.66;101853.06;124475;1112;24642;-59
2021/03/03 01:20:21;;;;;;;132.40;57.57;;;;;;;0.32;74.95;101851.91;124372;1112;23044;-59
2021/03/03 01:22:50;;;;;;;120.00;56.73;;;;;;;0.33;74.58;101853.48;124604;1113;23481;-60
2021/03/03 01:25:20;;;;;;;121.70;55.00;;;;;;;0.34;75.13;101852.34;124258;1111;23035;-56
2021/03/03 01:27:49;;;;;;;128.10;59.37;;;;;;;0.31;74.18;101850.31;124559;1112;23496;-59
2021/03/03 01:30:19;;;;;;;137.70;59.33;;;;;;;0.29;73.95;101841.66;124357;1111;26470;-59
2021/03/03 01:32:48;;;;;;;132.47;59.43;;;;;;;0.29;74.37;101838.14;124353;1112;23458;-58
2021/03/03 01:35:17;;;;;;;136.80;59.43;;;;;;;0.26;74.19;101836.92;124227;1110;23094;-59
2021/03/03 01:37:46;;;;;;;131.13;59.90;;;;;;;0.25;74.93;101838.06;124239;1112;23110;-59
2021/03/03 01:40:18;;;;;;;134.07;59.63;;;;;;;0.26;74.57;101836.92;124232;1111;23092;-59
2021/03/03 01:42:46;;;;;;;133.80;59.17;;;;;;;0.25;74.61;101831.80;124344;1112;23164;-59
2021/03/03 01:45:17;;;;;;;131.13;59.03;;;;;;;0.24;74.55;101828.26;124320;1111;23267;-60
2021/03/03 01:47:46;;;;;;;134.70;62.20;;;;;;;0.21;74.16;101834.48;124338;1111;25875;-59
2021/03/03 01:50:16;;;;;;;137.10;59.77;;;;;;;0.19;74.91;101831.31;124306;1111;23034;-58
2021/03/03 01:52:45;;;;;;;106.03;46.40;;;;;;;0.20;75.31;101832.91;124436;1111;23209;-58
2021/03/03 01:55:15;;;;;;;128.60;57.53;;;;;;;0.21;75.10;101830.97;124346;1111;23380;-57
2021/03/03 01:57:45;;;;;;;128.17;58.97;;;;;;;0.21;75.12;101825.47;124337;1112;23101;-57
2021/03/03 02:00:18;;;;;;;122.87;56.10;;;;;;;0.17;74.71;101821.85;124395;1111;26492;-59
2021/03/03 02:02:47;;;;;;;126.00;59.40;;;;;;;0.12;74.21;101814.75;124403;1111;23087;-59
2021/03/03 02:05:17;;;;;;;126.40;56.30;;;;;;;0.07;74.35;101812.30;124362;1111;26054;-58
2021/03/03 02:07:53;;;;;;;124.90;54.57;;;;;;;0.07;74.56;101804.07;124355;1112;23236;-59
2021/03/03 02:10:31;;;;;;;127.33;54.17;;;;;;;0.08;75.40;101815.86;124252;1111;23039;-58
2021/03/03 02:13:07;;;;;;;115.23;52.13;;;;;;;0.07;74.60;101806.81;124232;1111;23164;-61
2021/03/03 02:15:40;;;;;;;120.73;53.07;;;;;;;0.07;74.85;101806.02;124255;1112;23650;-59
2021/03/03 02:18:11;;;;;;;117.23;53.07;;;;;;;0.07;74.50;101798.58;124319;1112;23976;-59
2021/03/03 02:20:53;;;;;;;110.77;49.53;;;;;;;0.06;74.86;101799.76;124346;1111;23705;-62
2021/03/03 02:23:34;;;;;;;108.40;48.57;;;;;;;0.06;75.34;101798.95;124350;1113;26083;-59
2021/03/03 02:26:04;;;;;;;126.03;55.63;;;;;;;0.05;75.11;101791.87;124237;1110;26576;-59
2021/03/03 02:28:35;;;;;;;120.40;52.50;;;;;;;0.02;74.49;101789.87;124196;1112;23211;-59
2021/03/03 02:31:06;;;;;;;120.43;54.40;;;;;;;0.00;74.51;101784.77;124280;1111;23161;-57
2021/03/03 02:33:36;;;;;;;113.10;50.40;;;;;;;-0.02;75.06;101781.56;124394;1111;23047;-56
2021/03/03 02:36:07;;;;;;;120.62;51.98;;;;;;;-0.03;74.91;101780.80;124399;1111;23202;-59
2021/03/03 02:38:37;;;;;;;124.67;51.37;;;;;;;-0.04;74.70;101779.20;124312;1111;23160;-57
2021/03/03 02:41:06;;;;;;;119.95;53.15;;;;;;;-0.07;74.66;101779.95;124366;1112;23004;-59
2021/03/03 02:43:37;;;;;;;122.87;51.42;;;;;;;-0.09;74.25;101770.50;124525;1113;23122;-57
2021/03/03 02:46:08;;;;;;;114.05;50.25;;;;;;;-0.10;75.07;101774.39;124530;1112;27534;-57
2021/03/03 02:48:37;;;;;;;115.60;51.50;;;;;;;-0.13;75.34;101773.20;124383;1112;23087;-59
2021/03/03 02:51:08;;;;;;;113.00;51.30;;;;;;;-0.12;75.54;101773.97;124464;1111;23088;-59
2021/03/03 02:53:37;;;;;;;114.77;50.73;;;;;;;-0.12;75.27;101769.28;124451;1111;23092;-57
2021/03/03 02:56:07;;;;;;;117.27;52.60;;;;;;;-0.13;74.96;101770.45;124380;1111;23129;-58
2021/03/03 02:58:36;;;;;;;111.52;48.68;;;;;;;-0.15;74.89;101764.55;124407;1112;23075;-59
2021/03/03 03:01:08;;;;;;;112.10;50.87;;;;;;;-0.17;74.56;101769.61;124297;1111;23110;-58
2021/03/03 03:03:46;;;;;;;112.73;48.93;;;;;;;-0.18;74.74;101762.52;124369;1111;23028;-60
2021/03/03 03:06:21;;;;;;;109.53;46.77;;;;;;;-0.22;74.82;101760.88;124243;1112;25677;-57
2021/03/03 03:08:53;;;;;;;112.03;50.43;;;;;;;-0.26;75.13;101763.58;124475;1112;23075;-58
2021/03/03 03:11:26;;;;;;;110.87;47.70;;;;;;;-0.30;74.46;101761.94;124327;1111;23218;-57
2021/03/03 03:14:02;;;;;;;119.60;49.40;;;;;;;-0.35;74.89;101760.30;124317;1112;23033;-56
2021/03/03 03:16:33;;;;;;;110.17;46.63;;;;;;;-0.38;74.45;101761.05;124642;1111;23254;-55
2021/03/03 03:19:06;;;;;;;113.88;49.38;;;;;;;-0.40;74.51;101757.88;124449;1111;24431;-56
2021/03/03 03:21:39;;;;;;;118.47;49.77;;;;;;;-0.40;75.63;101757.08;124516;1112;24595;-60
2021/03/03 03:24:11;;;;;;;112.77;51.10;;;;;;;-0.42;75.33;101749.23;124403;1112;27312;-59
2021/03/03 03:26:40;;;;;;;114.37;48.50;;;;;;;-0.43;75.08;101749.57;124382;1112;23138;-58
2021/03/03 03:29:10;;;;;;;107.50;44.80;;;;;;;-0.45;74.65;101758.18;124403;1112;23107;-62
2021/03/03 03:31:40;;;;;;;104.70;46.42;;;;;;;-0.46;74.57;101750.32;124379;1111;23241;-56
2021/03/03 03:34:10;;;;;;;107.58;46.95;;;;;;;-0.47;75.08;101741.30;124379;1111;23259;-56
2021/03/03 03:36:40;;;;;;;105.15;45.65;;;;;;;-0.50;74.88;101742.05;124371;1112;26490;-57
2021/03/03 03:39:13;;;;;;;109.97;46.58;;;;;;;-0.53;75.14;101741.97;124507;1111;23242;-56
2021/03/03 03:41:45;;;;;;;100.37;45.03;;;;;;;-0.57;75.20;101744.66;124486;1111;23090;-56
2021/03/03 03:44:16;;;;;;;105.20;44.55;;;;;;;-0.56;74.81;101748.20;124407;1112;26617;-58
2021/03/03 03:46:46;;;;;;;104.20;47.20;;;;;;;-0.55;75.54;101736.86;124463;1112;23032;-59
2021/03/03 03:49:16;;;;;;;122.40;54.83;;;;;;;-0.55;75.52;101747.03;124483;1112;23029;-59
2021/03/03 03:51:46;;;;;;;129.82;57.17;;;;;;;-0.60;75.08;101742.64;124535;1112;23096;-57
2021/03/03 03:54:15;;;;;;;131.82;62.27;;;;;;;-0.65;75.35;101747.66;124466;1112;23089;-57
2021/03/03 03:56:44;;;;;;;141.53;65.80;;;;;;;-0.71;75.42;101754.60;124358;1112;23588;-58
2021/03/03 03:59:13;;;;;;;141.10;72.65;;;;;;;-0.76;75.47;101747.47;124302;1111;23087;-58
2021/03/03 04:01:42;;;;;;;151.30;75.40;;;;;;;-0.81;74.58;101750.53;124474;1112;26402;-58
2021/03/03 04:04:11;;;;;;;134.47;68.67;;;;;;;-0.85;75.52;101760.65;124492;1112;23239;-57
2021/03/03 04:06:41;;;;;;;130.43;60.63;;;;;;;-0.89;75.59;101749.59;124616;1112;23083;-59
2021/03/03 04:09:12;;;;;;;129.47;58.73;;;;;;;-0.89;74.95;101751.56;124619;1111;23783;-58
2021/03/03 04:11:39;;;;;;;;;;;;;;;-0.90;75.30;101748.03;124466;1112;23236;-59
2021/03/03 04:14:10;;;;;;;123.47;59.57;;;;;;;-0.91;75.70;101754.66;124406;1112;21511;-59
2021/03/03 04:16:39;;;;;;;129.50;58.17;;;;;;;-0.94;75.38;101741.69;124441;1112;23110;-55
2021/03/03 04:19:09;;;;;;;132.95;59.10;;;;;;;-0.98;74.85;101746.33;124482;1111;26875;-55
2021/03/03 04:21:38;;;;;;;117.53;55.30;;;;;;;-1.01;75.53;101744.30;124530;1112;23030;-59
2021/03/03 04:24:08;;;;;;;132.27;56.83;;;;;;;-1.03;75.70;101749.35;124563;1112;23245;-57
2021/03/03 04:26:38;;;;;;;124.80;54.05;;;;;;;-1.09;76.26;101741.78;124555;1112;23030;-59
2021/03/03 04:29:07;;;;;;;119.75;49.98;;;;;;;-1.12;75.82;101740.56;124530;1112;24675;-59
2021/03/03 04:31:36;;;;;;;112.03;49.33;;;;;;;-1.16;75.13;101727.97;124486;1113;23025;-58
2021/03/03 04:34:05;;;;;;;107.40;46.50;;;;;;;-1.17;75.45;101740.88;124402;1112;23035;-58
2021/03/03 04:36:34;;;;;;;94.65;43.00;;;;;;;-1.19;76.26;101734.97;124652;1113;26067;-59
2021/03/03 04:39:05;;;;;;;94.80;43.00;;;;;;;-1.21;76.31;101731.00;124442;1112;23238;-59
2021/03/03 04:41:34;;;;;;;94.03;40.58;;;;;;;-1.23;75.61;101736.84;124553;1112;27537;-57
2021/03/03 04:44:03;;;;;;;88.53;39.63;;;;;;;-1.24;75.17;101731.73;124589;1112;25121;-57
2021/03/03 04:46:32;;;;;;;95.90;42.03;;;;;;;-1.25;76.08;101741.09;124408;1112;23036;-57
2021/03/03 04:49:01;;;;;;;98.97;42.27;;;;;;;-1.28;75.76;101741.84;124603;1112;23046;-59
2021/03/03 04:51:31;;;;;;;89.00;40.10;;;;;;;-1.29;76.15;101735.56;124591;1111;27216;-58
2021/03/03 04:54:00;;;;;;;93.55;42.17;;;;;;;-1.25;75.83;101724.66;124530;1112;23087;-59
2021/03/03 04:56:29;;;;;;;95.43;44.73;;;;;;;-1.24;76.48;101727.03;124521;1112;23030;-57
2021/03/03 04:58:58;;;;;;;103.00;44.80;;;;;;;-1.21;76.35;101731.00;124528;1112;24683;-60
2021/03/03 05:01:27;;;;;;;116.30;48.75;;;;;;;-1.19;75.77;101725.95;124449;1112;23030;-58
2021/03/03 05:03:57;;;;;;;119.20;55.07;;;;;;;-1.18;75.85;101720.09;124523;1111;23093;-58
2021/03/03 05:06:29;;;;;;;132.37;54.73;;;;;;;-1.17;75.83;101729.91;124450;1111;26221;-57
2021/03/03 05:08:58;;;;;;;160.87;66.10;;;;;;;-1.18;76.29;101720.09;124564;1112;26108;-60
2021/03/03 05:11:28;;;;;;;170.43;70.77;;;;;;;-1.17;76.52;101710.73;124644;1111;23100;-56
2021/03/03 05:13:57;;;;;;;160.03;67.00;;;;;;;-1.15;76.09;101710.36;124395;1112;23241;-55
2021/03/03 05:16:26;;;;;;;152.57;63.17;;;;;;;-1.17;76.06;101707.99;124565;1111;23090;-59
2021/03/03 05:18:56;;;;;;;163.47;65.83;;;;;;;-1.18;76.05;101711.11;124419;1111;23063;-58
2021/03/03 05:21:25;;;;;;;160.77;71.73;;;;;;;-1.17;76.25;101704.45;124481;1111;23470;-59
2021/03/03 05:23:53;;;;;;;198.40;82.60;;;;;;;-1.17;75.59;101707.99;124411;1110;23440;-61
2021/03/03 05:26:23;;;;;;;188.70;79.57;;;;;;;-1.18;76.15;101698.17;124423;1111;23087;-58
2021/03/03 05:28:52;;;;;;;162.22;69.17;;;;;;;-1.15;76.57;101693.92;124363;1112;23685;-58
2021/03/03 05:31:21;;;;;;;165.77;68.57;;;;;;;-1.15;76.31;101700.20;124411;1112;23043;-57
2021/03/03 05:33:50;;;;;;;159.13;66.27;;;;;;;-1.13;76.73;101689.66;124338;1112;23042;-59
2021/03/03 05:36:19;;;;;;;159.30;64.73;;;;;;;-1.11;76.84;101695.57;124416;1112;23027;-58
2021/03/03 05:38:49;;;;;;;154.47;65.00;;;;;;;-1.09;76.30;101698.73;124417;1112;23157;-55
2021/03/03 05:41:21;;;;;;;150.85;60.92;;;;;;;-1.08;76.35;101689.38;124473;1112;26784;-61
2021/03/03 05:43:51;;;;;;;138.87;58.47;;;;;;;-1.09;75.89;101689.71;124458;1112;23039;-61
2021/03/03 05:46:21;;;;;;;138.03;58.60;;;;;;;-1.10;76.54;101694.42;124553;1112;23394;-59
2021/03/03 05:48:53;;;;;;;148.83;58.20;;;;;;;-1.12;76.58;101695.94;124563;1110;26730;-60
2021/03/03 05:51:24;;;;;;;135.30;56.17;;;;;;;-1.13;76.65;101692.41;124408;1112;23084;-61
2021/03/03 05:53:54;;;;;;;136.20;55.20;;;;;;;-1.12;75.79;101696.71;124468;1111;23016;-60
2021/03/03 05:56:24;;;;;;;140.55;55.20;;;;;;;-1.11;76.22;101697.51;124468;1112;27781;-58
2021/03/03 05:58:55;;;;;;;135.30;53.65;;;;;;;-1.10;76.72;101683.47;124436;1111;23073;-61
2021/03/03 06:01:25;;;;;;;137.18;54.53;;;;;;;-1.09;76.13;101682.29;124514;1112;23096;-61
2021/03/03 06:03:54;;;;;;;162.97;67.03;;;;;;;-1.07;76.43;101681.92;124461;1112;23239;-58
2021/03/03 06:06:25;;;;;;;171.10;65.08;;;;;;;-1.05;76.55;101683.14;124555;1111;26482;-53
2021/03/03 06:08:54;;;;;;;143.50;59.15;;;;;;;-1.03;77.01;101688.25;124617;1112;26221;-56
2021/03/03 06:11:23;;;;;;;135.27;56.13;;;;;;;-1.02;77.18;101681.63;124541;1111;23038;-61
2021/03/03 06:13:53;;;;;;;133.67;52.93;;;;;;;-1.04;77.45;101682.00;124363;1111;23033;-56
2021/03/03 06:16:22;;;;;;;126.13;49.93;;;;;;;-1.06;77.01;101675.30;124575;1112;23036;-55
2021/03/03 06:18:52;;;;;;;128.05;51.05;;;;;;;-1.09;77.95;101671.33;124406;1111;23044;-56
2021/03/03 06:21:31;;;;;;;126.70;51.50;;;;;;;-1.09;77.49;101676.02;127167;1111;23799;-54
2021/03/03 06:24:03;;;;;;;143.82;54.33;;;;;;;-1.10;77.51;101674.45;124425;1111;23086;-53
2021/03/03 06:26:32;;;;;;;151.07;59.83;;;;;;;-1.10;78.22;101677.19;124737;1111;23231;-56
2021/03/03 06:29:12;;;;;;;152.33;59.03;;;;;;;-1.10;78.13;101674.45;124615;1111;23079;-55
2021/03/03 06:31:44;;;;;;;147.25;57.88;;;;;;;-1.07;78.31;101668.22;124306;1111;23100;-53
2021/03/03 06:34:16;;;;;;;138.15;57.15;;;;;;;-1.05;77.59;101669.44;124295;1112;23084;-54
2021/03/03 06:36:47;;;;;;;125.35;51.95;;;;;;;-1.03;78.52;101669.87;124476;1112;23060;-54
2021/03/03 06:39:22;;;;;;;138.45;57.85;;;;;;;-1.03;78.68;101666.33;124784;1112;23099;-56
2021/03/03 06:41:53;;;;;;;135.53;54.73;;;;;;;-1.03;78.57;101660.84;124378;1111;23086;-56
2021/03/03 06:44:22;;;;;;;132.60;57.60;;;;;;;-1.03;78.85;101658.90;124804;1111;23232;-54
2021/03/03 06:47:05;;;;;;;135.40;54.18;;;;;;;-1.00;77.90;101657.38;124666;1112;23197;-54
2021/03/03 06:49:35;;;;;;;132.63;55.47;;;;;;;-0.99;78.16;101654.27;126223;1111;23023;-55
2021/03/03 06:52:05;;;;;;;136.67;58.03;;;;;;;-0.97;78.31;101660.17;124334;1111;23093;-56
2021/03/03 06:54:33;;;;;;;;;;;;;;;-0.93;79.00;101655.54;125388;1111;24051;-56
2021/03/03 06:57:05;;;;;;;143.40;57.50;;;;;;;-0.89;78.74;101655.62;124205;1111;21529;-55
2021/03/03 06:59:35;;;;;;;125.53;55.10;;;;;;;-0.86;78.35;101650.19;124261;1111;23042;-54
2021/03/03 07:02:10;;;;;;;121.92;52.43;;;;;;;-0.84;78.84;101644.33;124136;1112;23049;-55
2021/03/03 07:04:47;;;;;;;130.53;54.47;;;;;;;-0.83;79.36;101643.95;125471;1111;24924;-56
2021/03/03 07:07:19;;;;;;;135.40;54.35;;;;;;;-0.79;78.42;101646.77;124503;1111;23095;-57
2021/03/03 07:09:53;;;;;;;127.37;57.40;;;;;;;-0.76;79.57;101648.76;124871;1111;23068;-59
2021/03/03 07:12:27;;;;;;;135.30;58.20;;;;;;;-0.71;79.57;101644.91;124391;1111;26620;-54
2021/03/03 07:15:04;;;;;;;132.30;60.33;;;;;;;-0.66;79.94;101650.86;124436;1112;27777;-55
2021/03/03 07:17:38;;;;;;;137.43;61.03;;;;;;;-0.60;79.35;101654.10;124846;1110;23203;-57
2021/03/03 07:20:14;;;;;;;144.35;64.20;;;;;;;-0.55;80.14;101648.28;124491;1111;22994;-59
2021/03/03 07:22:49;;;;;;;139.43;63.10;;;;;;;-0.50;80.13;101651.52;125305;1110;23041;-58
2021/03/03 07:25:25;;;;;;;163.63;71.53;;;;;;;-0.45;80.67;101653.93;124792;1111;23206;-58
2021/03/03 07:27:57;;;;;;;158.63;71.83;;;;;;;-0.39;80.67;101652.45;124768;1111;23106;-60
2021/03/03 07:30:27;;;;;;;164.95;78.20;;;;;;;-0.30;80.71;101665.89;124471;1112;23001;-58
2021/03/03 07:32:58;;;;;;;168.70;77.75;;;;;;;-0.22;80.42;101656.59;124866;1111;23196;-57
2021/03/03 07:35:28;;;;;;;173.13;79.42;;;;;;;-0.14;80.50;101664.55;124676;1111;26017;-58
2021/03/03 07:37:58;;;;;;;168.43;78.75;;;;;;;-0.06;81.48;101677.20;124853;1112;23035;-59
2021/03/03 07:40:29;;;;;;;168.95;73.22;;;;;;;0.03;80.92;101665.95;124649;1112;23042;-57
2021/03/03 07:43:00;;;;;;;157.17;70.80;;;;;;;0.09;81.61;101667.20;124524;1112;23027;-55
2021/03/03 07:45:37;;;;;;;156.45;67.85;;;;;;;0.16;82.30;101663.75;125320;1110;23257;-58
2021/03/03 07:48:08;;;;;;;168.97;72.40;;;;;;;0.23;82.10;101658.36;124859;1111;27303;-60
2021/03/03 07:50:39;;;;;;;150.00;69.90;;;;;;;0.28;80.92;101653.31;124555;1112;23097;-58
2021/03/03 07:53:11;;;;;;;153.57;67.43;;;;;;;0.33;81.69;101647.47;125027;1111;23039;-58
2021/03/03 07:55:44;;;;;;;178.53;79.07;;;;;;;0.40;81.45;101647.55;124414;1111;23062;-58
2021/03/03 07:58:16;;;;;;;167.63;75.33;;;;;;;0.49;82.35;101647.27;124549;1110;23015;-58
2021/03/03 08:00:48;;;;;;;173.77;79.87;;;;;;;0.59;82.16;101647.37;124603;1110;23040;-59
2021/03/03 08:03:46;;;;;;;174.47;81.23;;;;;;;0.70;82.77;101642.75;124215;1112;23046;-59
2021/03/03 08:06:34;;;;;;;169.25;82.05;;;;;;;0.83;81.89;101645.25;124523;1112;23494;-58
2021/03/03 08:09:27;;;;;;;171.40;79.80;;;;;;;0.92;82.68;101646.50;124589;1112;23322;-61
2021/03/03 08:12:06;;;;;;;185.77;84.50;;;;;;;1.09;82.86;101647.81;124952;1113;26146;-59
2021/03/03 08:14:40;;;;;;;180.57;85.53;;;;;;;1.20;83.18;101638.47;124870;1114;23259;-59
2021/03/03 08:17:13;;;;;;;180.23;85.20;;;;;;;1.30;82.74;101634.23;124659;1113;24308;-59
2021/03/03 08:19:58;;;;;;;184.50;83.27;;;;;;;1.37;82.91;101637.02;124513;1113;26318;-59
2021/03/03 08:22:51;;;;;;;167.00;80.17;;;;;;;1.46;82.48;101631.98;124547;1113;23193;-58
2021/03/03 08:25:49;;;;;;;160.73;76.93;;;;;;;1.58;82.92;101626.15;124728;1114;23051;-56
2021/03/03 08:28:26;;;;;;;163.60;76.67;;;;;;;1.71;83.03;101624.66;124604;1115;25156;-58
2021/03/03 08:31:38;;;;;;;162.70;80.40;;;;;;;1.84;82.95;101630.63;125019;1113;23106;-58
2021/03/03 08:34:10;;;;;;;161.50;81.20;;;;;;;1.98;83.30;101625.17;124308;1113;23766;-58
2021/03/03 08:36:57;;;;;;;157.40;76.60;;;;;;;2.12;83.09;101625.22;124998;1115;23103;-57
2021/03/03 08:39:47;;;;;;;151.07;74.57;;;;;;;2.25;83.02;101626.45;125409;1114;23261;-60
2021/03/03 08:42:40;;;;;;;146.57;71.20;;;;;;;2.37;83.71;101615.87;124340;1113;23190;-58
2021/03/03 08:45:13;;;;;;;144.37;70.50;;;;;;;2.54;83.19;101613.53;124423;1113;23026;-59
2021/03/03 08:47:57;;;;;;;135.85;68.05;;;;;;;2.70;83.73;101608.42;126042;1115;27672;-57
2021/03/03 08:50:31;;;;;;;137.10;66.40;;;;;;;2.89;83.45;101602.53;124544;1111;23055;-55
2021/03/03 08:53:31;;;;;;;130.77;65.10;;;;;;;3.05;83.44;101598.20;124970;1111;25963;-56
2021/03/03 08:56:21;;;;;;;136.50;65.90;;;;;;;3.27;83.15;101598.95;124626;1111;26168;-57
2021/03/03 08:58:53;;;;;;;140.70;68.05;;;;;;;3.43;83.50;101591.05;124699;1111;23477;-60
2021/03/03 09:01:56;;;;;;;133.90;67.50;;;;;;;3.52;82.69;101599.69;124975;1111;26123;-58
2021/03/03 09:04:28;;;;;;;130.23;62.93;;;;;;;3.60;83.12;101592.20;124596;1111;22986;-56
2021/03/03 09:06:59;;;;;;;114.90;57.60;;;;;;;3.73;82.55;101599.64;124764;1110;23042;-57
2021/03/03 09:09:34;;;;;;;116.50;59.13;;;;;;;3.83;82.62;101590.52;124723;1111;23233;-58
2021/03/03 09:12:06;;;;;;;124.07;61.10;;;;;;;3.98;82.71;101591.25;125152;1112;23035;-54
2021/03/03 09:14:37;;;;;;;119.73;58.20;;;;;;;4.19;82.88;101588.39;125019;1111;26418;-55
2021/03/03 09:17:08;;;;;;;118.60;58.30;;;;;;;4.28;82.29;101591.52;124590;1111;23094;-59
2021/03/03 09:19:38;;;;;;;114.50;56.20;;;;;;;4.40;82.20;101588.28;124719;1111;22992;-56
2021/03/03 09:22:19;;;;;;;108.78;53.30;;;;;;;4.52;82.27;101584.23;124617;1111;23012;-56
2021/03/03 09:24:50;;;;;;;102.25;48.42;;;;;;;4.64;82.05;101584.55;125182;1112;23232;-57
2021/03/03 09:27:22;;;;;;;106.50;51.37;;;;;;;4.81;81.71;101577.30;124492;1111;23102;-55
2021/03/03 09:29:52;;;;;;;104.87;50.37;;;;;;;4.89;81.68;101576.84;124421;1110;23073;-57
2021/03/03 09:32:22;;;;;;;106.50;51.27;;;;;;;4.99;81.81;101580.70;124583;1112;23104;-57
2021/03/03 09:34:53;;;;;;;105.05;50.15;;;;;;;5.13;81.47;101577.04;124547;1111;23099;-60
2021/03/03 09:37:24;;;;;;;111.17;50.73;;;;;;;5.25;81.44;101565.45;125180;1111;26039;-57
2021/03/03 09:39:53;;;;;;;;;;;;;;;5.33;81.44;101566.95;124510;1111;23338;-57
2021/03/03 09:42:22;;;;;;;93.20;43.60;;;;;;;5.38;81.24;101556.20;124366;1111;21594;-58
2021/03/03 09:44:54;;;;;;;92.63;42.83;;;;;;;5.46;81.27;101554.16;124653;1112;22988;-60
2021/03/03 09:47:25;;;;;;;91.65;44.20;;;;;;;5.56;81.16;101550.48;125256;1110;22984;-58
2021/03/03 09:49:55;;;;;;;81.20;39.77;;;;;;;5.66;80.92;101549.56;124669;1111;22996;-58
2021/03/03 09:52:31;;;;;;;94.03;42.83;;;;;;;5.77;80.71;101549.44;124739;1111;26086;-56
2021/03/03 09:55:01;;;;;;;87.90;42.20;;;;;;;5.87;80.80;101554.88;124417;1112;27553;-57
2021/03/03 09:57:31;;;;;;;87.67;42.47;;;;;;;6.04;80.41;101547.54;124283;1112;23078;-59
2021/03/03 10:00:00;;;;;;;86.20;41.37;;;;;;;6.12;80.39;101551.78;124500;1112;23046;-58
2021/03/03 10:02:31;;;;;;;89.13;43.70;;;;;;;6.18;80.10;101547.34;124826;1112;27944;-57
2021/03/03 10:05:02;;;;;;;98.82;43.52;;;;;;;6.25;80.25;101542.46;124670;1111;23098;-58
2021/03/03 10:07:31;;;;;;;85.87;39.00;;;;;;;6.40;80.38;101534.72;124551;1112;23102;-57
2021/03/03 10:10:01;;;;;;;78.87;39.20;;;;;;;6.55;80.35;101533.30;124585;1111;23039;-55
2021/03/03 10:12:37;;;;;;;73.70;34.92;;;;;;;6.73;79.57;101527.45;124100;1112;23012;-58
2021/03/03 10:15:10;;;;;;;80.87;39.10;;;;;;;6.81;79.42;101526.92;124577;1111;23088;-58
2021/03/03 10:17:43;;;;;;;79.63;36.27;;;;;;;7.01;79.73;101513.11;124222;1112;23034;-58
2021/03/03 10:20:33;;;;;;;72.33;35.33;;;;;;;7.13;78.91;101510.50;124256;1112;23145;-58
2021/03/03 10:23:08;;;;;;;62.85;30.68;;;;;;;7.22;78.89;101501.61;124253;1111;23110;-59
2021/03/03 10:25:41;;;;;;;68.80;30.53;;;;;;;7.34;78.36;101510.07;124294;1112;23007;-58
2021/03/03 10:28:15;;;;;;;68.00;32.00;;;;;;;7.46;78.74;101502.32;124208;1112;24402;-58
2021/03/03 10:30:46;;;;;;;58.10;26.67;;;;;;;7.56;78.48;101501.31;125364;1111;23099;-59
2021/03/03 10:33:29;;;;;;;52.03;24.27;;;;;;;7.72;78.12;101504.16;124877;1112;23133;-58
2021/03/03 10:36:00;;;;;;;52.03;23.10;;;;;;;7.92;77.60;101497.38;124823;1112;23093;-60
2021/03/03 10:38:31;;;;;;;48.00;20.63;;;;;;;8.07;76.60;101490.27;124736;1110;23242;-55
2021/03/03 10:41:03;;;;;;;48.00;21.70;;;;;;;8.30;77.64;101494.94;125297;1111;23099;-61
2021/03/03 10:43:48;;;;;;;49.90;20.70;;;;;;;8.49;76.39;101496.87;125342;1111;27349;-59
2021/03/03 10:46:20;;;;;;;53.50;21.10;;;;;;;8.64;75.95;101488.95;124694;1111;23042;-59
2021/03/03 10:48:50;;;;;;;52.57;22.30;;;;;;;8.76;75.87;101477.89;124633;1111;23006;-58
2021/03/03 10:51:34;;;;;;;44.80;19.47;;;;;;;8.92;75.87;101475.08;124754;1111;23181;-58
2021/03/03 10:54:05;;;;;;;45.60;21.87;;;;;;;9.09;75.38;101466.69;125294;1112;23011;-60
2021/03/03 10:56:37;;;;;;;54.07;23.37;;;;;;;9.14;75.27;101464.16;125023;1110;24577;-60
2021/03/03 10:59:10;;;;;;;49.20;21.27;;;;;;;9.21;74.70;101461.16;124855;1111;26457;-59
2021/03/03 11:01:46;;;;;;;46.30;21.90;;;;;;;9.29;73.88;101461.77;125115;1110;23193;-61
2021/03/03 11:04:18;;;;;;;46.33;21.40;;;;;;;9.39;74.81;101447.53;125727;1111;23003;-60
2021/03/03 11:06:56;;;;;;;47.27;21.00;;;;;;;9.45;73.33;101450.55;125237;1112;23034;-58
2021/03/03 11:09:26;;;;;;;38.35;17.70;;;;;;;9.56;74.23;101443.42;124984;1111;23046;-59
2021/03/03 11:11:57;;;;;;;42.10;18.40;;;;;;;9.72;73.04;101439.78;124969;1110;23045;-58
2021/03/03 11:14:27;;;;;;;40.03;18.47;;;;;;;9.75;72.56;101445.25;124872;1112;25596;-59
2021/03/03 11:16:56;;;;;;;;;;;;;;;9.86;72.70;101436.56;125078;1111;23305;-59
2021/03/03 11:19:26;;;;;;;38.43;17.97;;;;;;;9.92;72.33;101440.35;124966;1112;21533;-59
2021/03/03 11:21:57;;;;;;;38.33;16.55;;;;;;;9.93;72.76;101435.56;124592;1111;23044;-58
2021/03/03 11:24:26;;;;;;;40.33;18.77;;;;;;;9.91;72.95;101424.83;124753;1112;23045;-60